Time;durP1;ratioP1;P1;durP2;ratioP2;P2;SDS_P1;SDS_P2;PMS_P1;PMS_P2;Temp;Humidity;BMP_temperature;BMP_pressure;BME280_temperature;BME280_humidity;BME280_pressure;Samples;Min_cycle;Max_cycle;Signal;HPM_P1;HPM_P2
2023/03/22 00:01:45;;;;;;;10.73;8.30;;;;;;;11.02;73.22;100648.94;5117208;28;20183;-67
2023/03/22 00:04:11;;;;;;;9.83;7.60;;;;;;;10.97;73.69;100644.91;5116756;28;20220;-67
2023/03/22 00:06:38;;;;;;;6.80;6.50;;;;;;;11.02;73.65;100646.28;5116430;28;20191;-67
2023/03/22 00:09:04;;;;;;;11.97;7.77;;;;;;;11.02;72.89;100635.53;5116691;28;20212;-67
2023/03/22 00:11:30;;;;;;;8.97;8.47;;;;;;;11.04;73.86;100640.81;5116930;28;20193;-67
2023/03/22 00:13:57;;;;;;;14.23;9.17;;;;;;;11.01;74.07;100641.91;5116777;28;20209;-67
2023/03/22 00:16:24;;;;;;;12.63;10.43;;;;;;;11.02;73.22;100642.75;5116183;28;20216;-67
2023/03/22 00:18:50;;;;;;;11.93;10.73;;;;;;;10.97;73.56;100640.41;5116217;28;20209;-67
2023/03/22 00:21:17;;;;;;;9.87;8.73;;;;;;;11.02;73.72;100642.75;5116683;28;20190;-67
2023/03/22 00:23:44;;;;;;;15.00;10.60;;;;;;;11.04;73.58;100633.63;5116062;28;20213;-67
2023/03/22 00:26:12;;;;;;;10.33;9.30;;;;;;;11.03;74.29;100633.72;5115935;28;20197;-67
2023/03/22 00:28:40;;;;;;;10.20;9.20;;;;;;;11.05;73.81;100631.78;5116211;28;20686;-67
2023/03/22 00:31:07;;;;;;;15.53;9.37;;;;;;;10.99;74.07;100629.56;5115963;28;20181;-67
2023/03/22 00:33:34;;;;;;;7.30;6.90;;;;;;;10.95;73.96;100622.72;5115879;28;20230;-67
2023/03/22 00:36:04;;;;;;;9.37;8.37;;;;;;;10.92;73.93;100634.53;5116062;28;20205;-67
2023/03/22 00:38:35;;;;;;;8.97;8.33;;;;;;;10.91;74.97;100621.25;5116430;28;20256;-67
2023/03/22 00:41:20;;;;;;;8.87;8.47;;;;;;;10.95;73.87;100628.09;5097805;28;20231;-67
2023/03/22 00:43:48;;;;;;;7.87;7.17;;;;;;;10.94;73.56;100624.56;5115960;28;20207;-67
2023/03/22 00:46:16;;;;;;;11.80;8.20;;;;;;;10.94;74.28;100623.69;5116298;28;20267;-67
2023/03/22 00:48:43;;;;;;;10.50;9.13;;;;;;;10.97;74.31;100610.06;5115893;28;20723;-67
2023/03/22 00:51:10;;;;;;;7.67;7.27;;;;;;;10.92;74.44;100610.41;5115895;28;20563;-67
2023/03/22 00:53:37;;;;;;;9.80;8.77;;;;;;;10.92;74.32;100610.41;5097218;28;20209;-67
2023/03/22 00:56:08;;;;;;;7.83;7.40;;;;;;;10.83;73.90;100601.25;5097212;28;20232;-67
2023/03/22 00:58:42;;;;;;;8.03;7.40;;;;;;;10.86;74.23;100600.16;5097800;28;20177;-67
2023/03/22 01:01:12;;;;;;;7.73;7.33;;;;;;;10.86;74.39;100601.00;5115389;28;20192;-68
2023/03/22 01:03:40;;;;;;;9.60;8.23;;;;;;;10.83;74.27;100587.84;5096874;28;20216;-67
2023/03/22 01:06:09;;;;;;;7.93;7.53;;;;;;;10.88;74.15;100594.69;5115771;28;20249;-67
2023/03/22 01:08:37;;;;;;;8.50;8.20;;;;;;;10.82;74.56;100590.63;5097365;28;20679;-67
2023/03/22 01:11:05;;;;;;;8.43;7.83;;;;;;;10.75;74.51;100584.03;5096920;28;20258;-67
2023/03/22 01:13:33;;;;;;;10.47;8.00;;;;;;;10.74;74.89;100583.16;5096821;28;20209;-67
2023/03/22 01:15:59;;;;;;;7.93;7.50;;;;;;;10.71;74.65;100583.41;5096685;28;20212;-67
2023/03/22 01:18:26;;;;;;;8.70;7.80;;;;;;;10.70;75.22;100580.84;5097851;28;20585;-67
2023/03/22 01:20:52;;;;;;;7.90;7.40;;;;;;;10.73;75.07;100577.94;5115311;28;20187;-67
2023/03/22 01:23:19;;;;;;;8.30;7.77;;;;;;;10.77;74.39;100577.56;5114916;28;20299;-67
2023/03/22 01:25:45;;;;;;;7.47;7.07;;;;;;;10.80;74.17;100576.53;5096507;28;20276;-67
2023/03/22 01:28:12;;;;;;;8.07;7.70;;;;;;;10.71;74.50;100578.06;5097241;28;20213;-67
2023/03/22 01:30:39;;;;;;;8.20;7.40;;;;;;;10.69;75.25;100571.09;5116468;28;20264;-68
2023/03/22 01:33:07;;;;;;;11.57;6.83;;;;;;;10.70;75.17;100567.44;5098335;28;20291;-67
2023/03/22 01:35:35;;;;;;;9.07;8.27;;;;;;;10.67;75.30;100560.50;5098143;28;20205;-67
2023/03/22 01:38:02;;;;;;;7.57;7.17;;;;;;;10.68;75.12;100556.88;5097515;28;20188;-68
2023/03/22 01:40:31;;;;;;;8.77;8.27;;;;;;;10.65;75.13;100551.72;5097452;28;20666;-68
2023/03/22 01:42:59;;;;;;;9.37;7.80;;;;;;;10.70;74.64;100549.53;5096604;28;20308;-67
2023/03/22 01:45:41;;;;;;;9.53;8.30;;;;;;;10.69;75.13;100549.69;5114526;28;20724;-67
2023/03/22 01:48:33;;;;;;;9.97;7.77;;;;;;;10.67;74.86;100541.75;5097075;28;20193;-67
2023/03/22 01:51:02;;;;;;;10.40;8.80;;;;;;;10.64;74.95;100542.84;5096255;28;20532;-67
2023/03/22 01:53:39;;;;;;;8.90;8.20;;;;;;;10.60;75.13;100536.00;5096360;28;20239;-67
2023/03/22 01:56:06;;;;;;;8.70;8.17;;;;;;;10.57;75.69;100527.34;5096895;28;20233;-67
2023/03/22 01:58:36;;;;;;;9.57;8.57;;;;;;;10.51;75.99;100523.31;5095995;28;20619;-67
2023/03/22 02:01:07;;;;;;;12.90;8.90;;;;;;;10.54;75.98;100525.75;5096071;28;20191;-68
2023/03/22 02:04:03;;;;;;;14.07;8.50;;;;;;;10.62;76.13;100518.00;5095914;28;20212;-67
2023/03/22 02:06:31;;;;;;;10.30;9.40;;;;;;;10.55;75.80;100516.75;5114201;28;20170;-67
2023/03/22 02:09:10;;;;;;;9.80;8.97;;;;;;;10.48;75.95;100507.47;5095947;28;20189;-67
2023/03/22 02:11:40;;;;;;;9.70;9.00;;;;;;;10.56;75.62;100509.56;5095822;28;20185;-67
2023/03/22 02:14:46;;;;;;;9.27;8.70;;;;;;;10.48;76.68;100501.25;5095280;28;20213;-67
2023/03/22 02:18:05;;;;;;;11.07;9.97;;;;;;;10.43;76.97;100497.09;5113837;28;20193;-67
2023/03/22 02:20:44;;;;;;;9.20;8.67;;;;;;;10.40;76.78;100500.00;5095761;28;20201;-67
2023/03/22 02:23:33;;;;;;;11.57;10.53;;;;;;;10.39;77.27;100495.63;5095619;28;20219;-67
2023/03/22 02:26:12;;;;;;;10.20;9.50;;;;;;;10.40;77.25;100499.16;5113856;28;20616;-67
2023/03/22 02:28:50;;;;;;;10.73;9.50;;;;;;;10.41;76.66;100495.50;5114193;28;20257;-67
2023/03/22 02:31:48;;;;;;;13.00;10.10;;;;;;;10.37;76.54;100494.03;5095646;28;20181;-67
2023/03/22 02:34:36;;;;;;;12.97;9.67;;;;;;;10.33;77.26;100489.88;5095523;28;20209;-67
2023/03/22 02:37:27;;;;;;;11.07;10.07;;;;;;;10.23;77.18;100478.97;5095516;28;20197;-67
2023/03/22 02:40:06;;;;;;;12.00;10.17;;;;;;;10.29;76.96;100483.88;5095492;28;20208;-67
2023/03/22 02:42:47;;;;;;;13.80;9.97;;;;;;;10.22;77.44;100475.44;5113818;28;20220;-67
2023/03/22 02:45:22;;;;;;;18.33;11.33;;;;;;;10.23;77.94;100473.63;5114794;28;20504;-67
2023/03/22 02:48:04;;;;;;;10.90;10.07;;;;;;;10.29;77.14;100464.31;5095452;28;20709;-67
2023/03/22 02:50:36;;;;;;;13.47;10.13;;;;;;;10.24;77.23;100464.63;5113612;28;20204;-67
2023/03/22 02:53:16;;;;;;;11.20;10.33;;;;;;;10.22;77.71;100462.06;5113836;28;20228;-67
2023/03/22 02:55:53;;;;;;;10.37;9.60;;;;;;;10.21;77.47;100463.03;5095267;28;20209;-67
2023/03/22 02:58:52;;;;;;;12.40;10.90;;;;;;;10.17;77.32;100455.34;5113841;28;20181;-67
2023/03/22 03:01:25;;;;;;;10.67;9.97;;;;;;;10.11;77.94;100461.16;5094659;28;20203;-67
2023/03/22 03:03:55;;;;;;;12.27;11.33;;;;;;;10.06;78.14;100461.50;5113479;28;20205;-67
2023/03/22 03:06:25;;;;;;;12.10;10.90;;;;;;;9.99;78.57;100455.75;5113764;28;20646;-67
2023/03/22 03:08:56;;;;;;;11.67;10.77;;;;;;;9.99;78.29;100460.25;5095170;28;20199;-67
2023/03/22 03:11:24;;;;;;;11.87;10.83;;;;;;;9.98;78.28;100455.84;5095348;28;20181;-67
2023/03/22 03:13:51;;;;;;;14.67;10.40;;;;;;;9.96;78.01;100457.78;5095164;28;20254;-67
2023/03/22 03:16:20;;;;;;;14.43;11.67;;;;;;;9.90;78.39;100451.06;5095066;28;20306;-67
2023/03/22 03:18:59;;;;;;;11.57;10.57;;;;;;;9.95;78.54;100456.91;5095057;28;20193;-67
2023/03/22 03:21:33;;;;;;;13.63;11.07;;;;;;;9.90;78.71;100458.25;5113649;28;20191;-67
2023/03/22 03:24:20;;;;;;;11.23;10.10;;;;;;;9.87;78.66;100450.44;5094970;28;20549;-67
2023/03/22 03:27:01;;;;;;;14.33;11.50;;;;;;;9.80;79.02;100447.38;5114973;28;20185;-67
2023/03/22 03:29:48;;;;;;;11.37;10.43;;;;;;;9.76;79.19;100454.75;5117635;28;20211;-67
2023/03/22 03:32:34;;;;;;;11.23;10.40;;;;;;;9.75;79.56;100452.19;5117418;28;20204;-67
2023/03/22 03:35:21;;;;;;;13.30;11.50;;;;;;;9.76;79.19;100448.53;5117091;28;20161;-67
2023/03/22 03:37:52;;;;;;;13.13;11.67;;;;;;;9.73;79.53;100443.44;5117610;28;20664;-67
2023/03/22 03:40:25;;;;;;;11.37;10.47;;;;;;;9.75;79.33;100441.50;5098753;28;20276;-67
2023/03/22 03:42:55;;;;;;;11.73;10.60;;;;;;;9.73;79.70;100446.09;5117073;28;20201;-67
2023/03/22 03:45:23;;;;;;;11.60;10.43;;;;;;;9.70;79.54;100436.50;5098616;28;20208;-68
2023/03/22 03:47:55;;;;;;;10.90;9.90;;;;;;;9.74;79.54;100434.44;5098528;28;20190;-68
2023/03/22 03:50:24;;;;;;;11.77;10.87;;;;;;;9.67;79.33;100436.69;5116837;28;20230;-68
2023/03/22 03:52:53;;;;;;;15.17;11.60;;;;;;;9.65;79.73;100440.44;5098425;28;20223;-67
2023/03/22 03:55:21;;;;;;;12.20;11.10;;;;;;;9.69;79.83;100429.41;5098653;28;20201;-67
2023/03/22 03:57:47;;;;;;;21.17;11.00;;;;;;;9.69;79.56;100434.75;5098271;28;20223;-67
2023/03/22 04:00:14;;;;;;;13.00;11.73;;;;;;;9.64;79.73;100430.72;5116596;28;20273;-68
2023/03/22 04:03:00;;;;;;;11.73;10.80;;;;;;;9.59;79.94;100434.56;5116770;28;20236;-68
2023/03/22 04:05:47;;;;;;;11.53;10.67;;;;;;;9.62;80.17;100429.97;5098741;28;20193;-68
2023/03/22 04:08:13;;;;;;;11.67;10.57;;;;;;;9.58;80.21;100427.53;5116798;28;20204;-68
2023/03/22 04:10:40;;;;;;;10.47;9.57;;;;;;;9.61;80.22;100433.63;5099092;28;20201;-68
2023/03/22 04:13:06;;;;;;;11.60;10.27;;;;;;;9.59;80.56;100428.38;5098062;28;20236;-68
2023/03/22 04:15:33;;;;;;;13.23;10.17;;;;;;;9.63;80.13;100424.53;5098042;28;20200;-68
2023/03/22 04:18:03;;;;;;;16.77;11.37;;;;;;;9.66;80.33;100426.13;5098681;28;20681;-68
2023/03/22 04:20:30;;;;;;;12.30;10.90;;;;;;;9.61;80.25;100423.78;5097916;28;20199;-68
2023/03/22 04:22:57;;;;;;;12.20;10.97;;;;;;;9.64;79.97;100422.69;5097823;28;20243;-67
2023/03/22 04:25:29;;;;;;;10.90;9.87;;;;;;;9.64;80.27;100428.91;5097801;28;20185;-68
2023/03/22 04:28:03;;;;;;;15.03;11.60;;;;;;;9.58;80.39;100410.66;5098225;28;20205;-68
2023/03/22 04:30:34;;;;;;;11.23;10.17;;;;;;;9.59;80.37;100418.53;5097814;28;20216;-68
2023/03/22 04:33:07;;;;;;;17.23;11.37;;;;;;;9.64;80.36;100422.69;5116347;28;20240;-67
2023/03/22 04:35:55;;;;;;;12.47;10.73;;;;;;;9.60;80.53;100414.06;5115877;28;20213;-67
2023/03/22 04:38:28;;;;;;;10.87;9.97;;;;;;;9.66;80.16;100413.59;5097129;28;20267;-67
2023/03/22 04:40:54;;;;;;;10.40;9.10;;;;;;;9.57;80.40;100408.91;5097527;28;20197;-67
2023/03/22 04:43:33;;;;;;;14.20;9.97;;;;;;;9.57;80.28;100403.56;5097449;28;20210;-67
2023/03/22 04:46:03;;;;;;;10.37;9.53;;;;;;;9.62;80.20;100412.09;5097992;28;20181;-67
2023/03/22 04:48:38;;;;;;;12.37;10.97;;;;;;;9.54;80.44;100404.66;5098206;28;20212;-68
2023/03/22 04:51:06;;;;;;;9.87;9.37;;;;;;;9.50;80.45;100410.34;5115552;28;20191;-68
2023/03/22 04:53:38;;;;;;;10.83;9.73;;;;;;;9.60;80.33;100411.41;5097554;28;20238;-67
2023/03/22 04:56:09;;;;;;;11.53;9.77;;;;;;;9.57;80.40;100411.59;5097361;28;20270;-68
2023/03/22 04:58:38;;;;;;;11.13;10.17;;;;;;;9.65;79.82;100419.06;5097209;28;20201;-68
2023/03/22 05:01:06;;;;;;;9.37;8.50;;;;;;;9.57;79.97;100409.78;5097089;28;20185;-68
2023/03/22 05:03:36;;;;;;;9.17;8.47;;;;;;;9.66;79.88;100407.41;5096969;28;20217;-68
2023/03/22 05:06:05;;;;;;;13.13;9.47;;;;;;;9.64;79.85;100414.69;5097221;28;20231;-68
2023/03/22 05:08:40;;;;;;;8.60;8.00;;;;;;;9.66;79.83;100413.59;5097523;28;20547;-68
2023/03/22 05:11:11;;;;;;;14.10;9.60;;;;;;;9.65;80.02;100414.59;5097142;28;20189;-68
2023/03/22 05:13:38;;;;;;;9.73;8.90;;;;;;;9.66;79.81;100412.75;5097136;28;20216;-68
2023/03/22 05:16:06;;;;;;;11.33;9.03;;;;;;;9.59;79.92;100409.66;5096729;28;20205;-68
2023/03/22 05:18:44;;;;;;;9.53;8.93;;;;;;;9.57;80.05;100403.56;5097126;28;20199;-68
2023/03/22 05:21:14;;;;;;;9.57;8.93;;;;;;;9.62;79.95;100411.25;5096702;28;20677;-69
2023/03/22 05:23:42;;;;;;;9.73;8.93;;;;;;;9.53;79.90;100400.28;5096752;28;20216;-67
2023/03/22 05:26:14;;;;;;;10.83;9.30;;;;;;;9.58;79.87;100406.16;5096943;28;20246;-68
2023/03/22 05:28:42;;;;;;;12.80;8.33;;;;;;;9.58;80.02;100410.66;5096625;28;20268;-68
2023/03/22 05:31:16;;;;;;;17.67;9.57;;;;;;;9.66;79.46;100412.75;5097487;28;20276;-68
2023/03/22 05:33:52;;;;;;;9.07;8.10;;;;;;;9.69;79.39;100415.19;5096602;28;20224;-68
2023/03/22 05:36:24;;;;;;;9.03;8.03;;;;;;;9.64;79.55;100415.53;5096404;28;20205;-68
2023/03/22 05:39:06;;;;;;;16.07;7.87;;;;;;;9.70;79.10;100414.25;5096445;28;20212;-68
2023/03/22 05:41:33;;;;;;;8.23;7.57;;;;;;;9.72;79.36;100407.81;5114545;28;20260;-68
2023/03/22 05:44:03;;;;;;;8.50;7.83;;;;;;;9.72;79.12;100410.50;5096217;28;20212;-68
2023/03/22 05:46:30;;;;;;;9.73;8.10;;;;;;;9.85;78.97;100410.44;5096257;28;20185;-68
2023/03/22 05:49:15;;;;;;;8.53;7.57;;;;;;;9.87;78.58;100405.81;5114312;28;20187;-68
2023/03/22 05:51:42;;;;;;;8.53;7.73;;;;;;;9.95;78.18;100415.94;5096129;28;20219;-68
2023/03/22 05:54:11;;;;;;;8.30;7.30;;;;;;;9.94;77.83;100404.41;5096079;28;20686;-68
2023/03/22 05:56:44;;;;;;;9.63;7.20;;;;;;;9.94;78.32;100409.75;5096315;28;20233;-68
2023/03/22 05:59:11;;;;;;;7.47;6.97;;;;;;;10.02;78.07;100417.19;5114816;28;20516;-68
2023/03/22 06:01:38;;;;;;;8.03;7.47;;;;;;;10.06;77.50;100417.84;5096594;28;20193;-68
2023/03/22 06:04:11;;;;;;;11.90;6.63;;;;;;;10.14;77.33;100410.94;5096482;28;20216;-68
2023/03/22 06:06:59;;;;;;;7.37;6.07;;;;;;;10.20;77.17;100413.16;5096510;28;20199;-68
2023/03/22 06:09:40;;;;;;;9.10;6.87;;;;;;;10.24;77.17;100403.06;5095892;28;20544;-68
2023/03/22 06:12:11;;;;;;;9.13;6.17;;;;;;;10.23;77.52;100404.03;5096021;28;20196;-68
2023/03/22 06:14:41;;;;;;;7.27;6.87;;;;;;;10.36;76.76;100402.16;5096030;28;20193;-68
2023/03/22 06:17:18;;;;;;;9.27;6.97;;;;;;;10.37;76.90;100400.34;5096456;28;20201;-68
2023/03/22 06:19:46;;;;;;;6.03;5.67;;;;;;;10.46;76.41;100402.31;5095695;28;20564;-68
2023/03/22 06:22:13;;;;;;;6.53;6.07;;;;;;;10.59;76.17;100404.91;5095514;28;20629;-67
2023/03/22 06:24:41;;;;;;;6.40;6.07;;;;;;;10.58;75.82;100408.53;5113877;28;20201;-68
2023/03/22 06:27:10;;;;;;;7.37;6.10;;;;;;;10.59;76.35;100405.75;5095540;28;20227;-68
2023/03/22 06:29:39;;;;;;;7.97;7.37;;;;;;;10.62;75.67;100410.03;5095587;28;20193;-68
2023/03/22 06:32:06;;;;;;;7.67;7.07;;;;;;;10.64;75.98;100406.25;5095431;28;20249;-68
2023/03/22 06:34:32;;;;;;;7.63;7.03;;;;;;;10.62;75.65;100408.19;5095413;28;20219;-69
2023/03/22 06:37:00;;;;;;;14.77;6.37;;;;;;;10.65;75.86;100404.41;5095314;28;20278;-69
2023/03/22 06:39:36;;;;;;;7.47;6.60;;;;;;;10.72;74.93;100394.94;5095460;28;20196;-69
2023/03/22 06:42:02;;;;;;;6.20;5.67;;;;;;;10.78;75.20;100393.63;5095308;28;20310;-68
2023/03/22 06:44:29;;;;;;;6.40;5.77;;;;;;;10.81;74.59;100391.53;5095362;28;20589;-68
2023/03/22 06:47:14;;;;;;;5.67;5.27;;;;;;;10.87;74.84;100384.88;5095296;28;20184;-68
2023/03/22 06:49:40;;;;;;;10.57;6.83;;;;;;;10.86;74.40;100393.88;5113762;28;20251;-68
2023/03/22 06:52:08;;;;;;;11.03;6.23;;;;;;;10.88;74.36;100391.91;5095945;28;20217;-67
2023/03/22 06:54:35;;;;;;;6.00;5.50;;;;;;;10.93;74.24;100394.25;5095226;28;20216;-68
2023/03/22 06:57:01;;;;;;;5.60;5.23;;;;;;;11.02;73.50;100393.53;5078370;28;20205;-68
2023/03/22 06:59:28;;;;;;;15.33;5.27;;;;;;;10.99;73.58;100399.97;5095171;28;20197;-68
2023/03/22 07:01:55;;;;;;;5.80;5.13;;;;;;;11.03;74.06;100397.88;5099112;28;20185;-68
2023/03/22 07:04:22;;;;;;;5.63;5.23;;;;;;;10.98;74.11;100384.84;5099407;28;20189;-68
2023/03/22 07:06:49;;;;;;;13.73;5.67;;;;;;;10.93;74.25;100384.38;5099273;28;20197;-68
2023/03/22 07:09:16;;;;;;;5.57;5.27;;;;;;;10.98;74.34;100381.31;5117683;28;20193;-68
2023/03/22 07:11:45;;;;;;;6.50;5.97;;;;;;;10.96;74.04;100370.72;5100093;28;20193;-68
2023/03/22 07:14:11;;;;;;;14.83;5.33;;;;;;;11.00;74.21;100380.22;5117451;28;20215;-68
2023/03/22 07:16:54;;;;;;;7.13;6.17;;;;;;;10.95;73.72;100377.06;5099185;28;20233;-68
2023/03/22 07:19:22;;;;;;;18.63;6.60;;;;;;;11.01;74.00;100376.59;5099065;28;20305;-68
2023/03/22 07:21:49;;;;;;;5.23;4.93;;;;;;;11.04;73.68;100386.22;5099070;28;20601;-68
2023/03/22 07:24:17;;;;;;;9.17;5.40;;;;;;;11.02;73.46;100383.66;5098803;28;20219;-68
2023/03/22 07:26:44;;;;;;;8.10;5.13;;;;;;;11.07;73.63;100378.75;5098896;28;20221;-68
2023/03/22 07:29:15;;;;;;;7.50;5.27;;;;;;;11.12;73.26;100374.88;5099254;28;20197;-68
2023/03/22 07:31:41;;;;;;;8.27;7.87;;;;;;;11.22;72.88;100379.38;5117155;28;20314;-68
2023/03/22 07:34:10;;;;;;;8.63;4.40;;;;;;;11.32;72.64;100375.94;5098752;28;20299;-69
2023/03/22 07:36:47;;;;;;;4.80;4.37;;;;;;;11.45;72.47;100380.19;5098923;28;20208;-69
2023/03/22 07:39:14;;;;;;;5.50;5.03;;;;;;;11.58;71.57;100380.03;5098682;28;20230;-69
2023/03/22 07:41:44;;;;;;;5.33;4.83;;;;;;;11.70;71.68;100364.78;5099246;28;20682;-69
2023/03/22 07:44:42;;;;;;;5.27;4.77;;;;;;;11.75;71.47;100369.75;5116539;28;20574;-68
2023/03/22 07:47:31;;;;;;;5.37;4.97;;;;;;;11.88;71.13;100367.81;5116571;28;20196;-68
2023/03/22 07:50:21;;;;;;;5.30;4.83;;;;;;;11.98;70.01;100370.56;5117103;28;20197;-69
2023/03/22 07:52:53;;;;;;;4.67;4.27;;;;;;;12.02;70.55;100363.94;5098379;28;20270;-68
2023/03/22 07:55:19;;;;;;;6.67;4.17;;;;;;;12.06;69.57;100370.78;5098421;28;20287;-68
2023/03/22 07:57:46;;;;;;;4.47;4.07;;;;;;;11.98;69.70;100375.94;5116751;28;20618;-69
2023/03/22 08:00:12;;;;;;;5.10;4.67;;;;;;;11.97;69.44;100377.78;5098346;28;20193;-68
2023/03/22 08:02:46;;;;;;;5.93;3.93;;;;;;;11.93;69.44;100370.97;5098738;28;20220;-68
2023/03/22 08:05:29;;;;;;;5.37;4.00;;;;;;;11.89;69.34;100367.66;5098404;28;20586;-68
2023/03/22 08:07:59;;;;;;;5.37;3.50;;;;;;;11.88;70.33;100376.72;5099024;28;20183;-68
2023/03/22 08:10:26;;;;;;;5.27;3.30;;;;;;;11.84;68.53;100374.38;5098081;28;20190;-68
2023/03/22 08:12:53;;;;;;;6.80;3.87;;;;;;;11.83;68.54;100360.13;5097137;28;20302;-68
2023/03/22 08:15:22;;;;;;;3.40;3.17;;;;;;;11.89;67.96;100377.56;5098026;28;20207;-68
2023/03/22 08:17:49;;;;;;;3.40;3.10;;;;;;;11.90;67.93;100369.38;5097797;28;20244;-68
2023/03/22 08:20:26;;;;;;;3.20;2.50;;;;;;;11.98;67.90;100371.44;5097886;28;20204;-68
2023/03/22 08:22:55;;;;;;;5.60;2.67;;;;;;;12.05;67.43;100379.81;5097860;28;20586;-68
2023/03/22 08:25:28;;;;;;;2.67;2.47;;;;;;;12.04;68.69;100380.78;5116386;28;20209;-69
2023/03/22 08:28:03;;;;;;;2.73;2.50;;;;;;;12.06;66.76;100379.69;5097952;28;20189;-69
2023/03/22 08:30:30;;;;;;;2.57;2.37;;;;;;;12.07;67.32;100389.44;5098405;28;20197;-69
2023/03/22 08:32:56;;;;;;;2.07;2.00;;;;;;;12.10;65.91;100378.44;5097845;28;20228;-68
2023/03/22 08:35:23;;;;;;;2.37;2.27;;;;;;;12.18;66.98;100388.53;5097642;28;20196;-68
2023/03/22 08:37:53;;;;;;;1.93;1.93;;;;;;;12.17;66.84;100377.94;5097492;28;20270;-69
2023/03/22 08:40:23;;;;;;;2.23;2.10;;;;;;;12.13;66.74;100393.44;5081383;28;20185;-69
2023/03/22 08:42:54;;;;;;;2.60;2.40;;;;;;;12.07;66.94;100384.09;5097657;28;20217;-68
2023/03/22 08:45:21;;;;;;;5.30;2.60;;;;;;;11.99;67.53;100396.44;5097525;28;20585;-69
2023/03/22 08:47:56;;;;;;;2.63;2.53;;;;;;;11.88;66.96;100374.03;5098371;28;20192;-69
2023/03/22 08:50:24;;;;;;;7.73;2.20;;;;;;;11.83;69.05;100380.72;5098096;28;20189;-69
2023/03/22 08:52:59;;;;;;;3.63;2.53;;;;;;;11.69;67.23;100381.88;5098035;28;20600;-69
2023/03/22 08:55:28;;;;;;;6.30;2.90;;;;;;;11.71;67.81;100383.44;5097259;28;20289;-69
2023/03/22 08:57:58;;;;;;;6.00;2.03;;;;;;;11.81;67.13;100383.53;5115613;28;20209;-69
2023/03/22 09:00:33;;;;;;;2.70;2.60;;;;;;;11.78;66.43;100383.78;5097818;28;20185;-69
2023/03/22 09:03:23;;;;;;;3.93;2.37;;;;;;;11.83;66.54;100380.72;5097132;28;20222;-69
2023/03/22 09:05:50;;;;;;;4.47;2.60;;;;;;;11.92;66.09;100371.91;5115309;28;20185;-69
2023/03/22 09:08:16;;;;;;;4.30;2.87;;;;;;;11.97;66.70;100382.28;5115323;28;20679;-69
2023/03/22 09:10:51;;;;;;;4.63;2.40;;;;;;;12.11;66.76;100388.22;5097301;28;20192;-69
2023/03/22 09:13:20;;;;;;;8.50;2.73;;;;;;;12.13;65.14;100385.38;5115711;28;20193;-69
2023/03/22 09:15:55;;;;;;;10.70;2.83;;;;;;;12.07;65.60;100380.56;5097708;28;20261;-69
2023/03/22 09:18:25;;;;;;;2.27;2.07;;;;;;;12.09;65.06;100390.19;5096825;28;20575;-69
2023/03/22 09:20:56;;;;;;;2.30;2.00;;;;;;;12.12;65.67;100381.00;5096843;28;20268;-69
2023/03/22 09:23:30;;;;;;;2.90;2.70;;;;;;;12.24;66.36;100377.28;5096977;28;20221;-68
2023/03/22 09:26:06;;;;;;;2.53;2.40;;;;;;;12.29;65.33;100382.28;5096572;28;20221;-69
2023/03/22 09:28:34;;;;;;;3.07;2.27;;;;;;;12.31;64.77;100372.25;5097227;28;20181;-69
2023/03/22 09:31:06;;;;;;;3.60;2.13;;;;;;;12.34;65.32;100369.31;5096864;28;20194;-69
2023/03/22 09:33:34;;;;;;;14.23;2.20;;;;;;;12.34;65.45;100375.53;5096416;28;20209;-69
2023/03/22 09:36:00;;;;;;;2.60;2.27;;;;;;;12.48;65.22;100378.88;5096607;28;20621;-69
2023/03/22 09:38:32;;;;;;;9.40;2.50;;;;;;;12.49;64.31;100375.19;5096436;28;20580;-69
2023/03/22 09:41:04;;;;;;;3.07;2.27;;;;;;;12.55;64.28;100367.47;5096499;28;20643;-69
2023/03/22 09:43:37;;;;;;;2.40;2.30;;;;;;;12.59;63.14;100372.56;5096605;28;20303;-69
2023/03/22 09:46:11;;;;;;;4.67;2.27;;;;;;;12.42;64.61;100369.50;5097502;28;20539;-69
2023/03/22 09:48:41;;;;;;;7.20;2.50;;;;;;;12.47;63.80;100385.22;5114928;28;20256;-69
2023/03/22 09:51:22;;;;;;;2.40;2.40;;;;;;;12.55;63.17;100380.91;5114867;28;20275;-69
2023/03/22 09:53:49;;;;;;;2.87;2.77;;;;;;;12.69;61.95;100371.66;5114538;28;20220;-69
2023/03/22 09:56:15;;;;;;;4.43;2.27;;;;;;;12.76;62.16;100374.63;5114697;28;20185;-69
2023/03/22 09:58:47;;;;;;;2.57;2.03;;;;;;;12.56;60.92;100377.22;5114243;28;20679;-69
2023/03/22 10:01:36;;;;;;;4.80;1.60;;;;;;;12.56;62.15;100377.22;5114878;28;20180;-69
2023/03/22 10:04:40;;;;;;;3.23;2.40;;;;;;;12.49;60.93;100375.19;5114367;28;20256;-68
2023/03/22 10:07:36;;;;;;;8.27;2.30;;;;;;;12.46;61.00;100370.94;5114469;28;20620;-69
2023/03/22 10:10:16;;;;;;;5.03;2.60;;;;;;;12.48;62.41;100371.66;5114185;28;20180;-69
2023/03/22 10:12:56;;;;;;;4.90;1.90;;;;;;;12.55;62.37;100356.72;5114033;28;20205;-68
2023/03/22 10:15:33;;;;;;;4.03;2.60;;;;;;;12.51;62.08;100352.59;5114609;28;20184;-69
2023/03/22 10:18:02;;;;;;;2.93;2.60;;;;;;;12.54;61.16;100357.69;5113999;28;20197;-69
2023/03/22 10:20:54;;;;;;;2.17;1.90;;;;;;;12.54;62.14;100364.91;5113934;28;20189;-69
2023/03/22 10:23:29;;;;;;;7.13;2.70;;;;;;;12.73;62.10;100356.09;5113870;28;20209;-68
2023/03/22 10:25:57;;;;;;;2.47;2.37;;;;;;;12.71;61.00;100366.13;5113947;28;20222;-68
2023/03/22 10:28:30;;;;;;;2.53;2.50;;;;;;;12.65;60.04;100351.41;5114466;28;20174;-68
2023/03/22 10:30:57;;;;;;;2.23;2.00;;;;;;;12.68;60.21;100350.28;5114042;28;20260;-69
2023/03/22 10:33:32;;;;;;;2.73;2.53;;;;;;;12.90;60.84;100357.31;5113987;28;20224;-68
2023/03/22 10:36:00;;;;;;;6.63;2.47;;;;;;;13.04;59.85;100348.03;5113963;28;20630;-68
2023/03/22 10:38:29;;;;;;;2.73;2.63;;;;;;;13.10;60.25;100347.53;5114248;28;20205;-69
2023/03/22 10:40:57;;;;;;;3.27;2.43;;;;;;;13.17;60.55;100354.91;5113979;28;20185;-69
2023/03/22 10:43:39;;;;;;;5.80;2.57;;;;;;;13.12;58.75;100367.03;5113835;28;20247;-69
2023/03/22 10:46:13;;;;;;;4.43;2.93;;;;;;;13.09;59.03;100375.38;5113668;28;20628;-69
2023/03/22 10:48:43;;;;;;;2.00;2.00;;;;;;;12.98;59.88;100360.22;5113684;28;20168;-69
2023/03/22 10:51:46;;;;;;;2.20;2.10;;;;;;;12.88;60.69;100372.72;5114019;28;20196;-69
2023/03/22 10:54:16;;;;;;;2.10;1.97;;;;;;;12.91;60.38;100361.72;5098095;28;20311;-69
2023/03/22 10:56:43;;;;;;;4.07;2.37;;;;;;;12.98;60.81;100365.59;5113564;28;20260;-69
2023/03/22 10:59:44;;;;;;;2.53;2.37;;;;;;;13.05;60.72;100356.00;5113455;28;20198;-69
2023/03/22 11:02:23;;;;;;;6.60;3.03;;;;;;;13.15;60.41;100364.09;5113972;28;20185;-68
2023/03/22 11:04:55;;;;;;;3.03;2.93;;;;;;;13.07;59.89;100345.06;5113434;28;20176;-69
2023/03/22 11:07:30;;;;;;;6.33;2.23;;;;;;;13.22;60.08;100349.13;5113937;28;20181;-69
2023/03/22 11:10:12;;;;;;;8.90;2.83;;;;;;;13.31;59.93;100353.72;5113736;28;20274;-69
2023/03/22 11:12:45;;;;;;;2.13;1.93;;;;;;;13.29;58.33;100352.13;5113434;28;20196;-68
2023/03/22 11:15:27;;;;;;;4.67;2.57;;;;;;;13.15;60.31;100351.50;5113749;28;20173;-69
2023/03/22 11:18:00;;;;;;;4.43;3.00;;;;;;;13.23;58.94;100364.25;5113556;28;20603;-68
2023/03/22 11:20:27;;;;;;;2.60;1.80;;;;;;;13.20;59.00;100345.69;5113433;28;20177;-69
2023/03/22 11:23:01;;;;;;;2.80;2.17;;;;;;;13.12;59.83;100342.84;5113587;28;20650;-69
2023/03/22 11:25:31;;;;;;;4.73;2.17;;;;;;;13.12;59.73;100351.78;5113930;28;20257;-69
2023/03/22 11:28:03;;;;;;;9.30;2.40;;;;;;;13.04;59.81;100351.56;5113111;28;20215;-69
2023/03/22 11:30:31;;;;;;;3.80;2.30;;;;;;;13.07;59.22;100358.53;5113818;28;20181;-69
2023/03/22 11:33:07;;;;;;;2.50;2.30;;;;;;;12.97;60.49;100353.09;5113120;28;20717;-69
2023/03/22 11:35:37;;;;;;;3.60;2.27;;;;;;;12.99;60.95;100357.34;5113511;28;20177;-69
2023/03/22 11:38:04;;;;;;;2.07;1.97;;;;;;;13.03;60.19;100359.81;5113362;28;20748;-70
2023/03/22 11:40:35;;;;;;;2.53;2.20;;;;;;;13.16;59.63;100355.03;5112949;28;20187;-69
2023/03/22 11:43:18;;;;;;;8.13;2.23;;;;;;;13.04;59.61;100345.34;5112990;28;20685;-69
2023/03/22 11:45:47;;;;;;;9.53;2.17;;;;;;;12.94;59.83;100339.94;5113666;28;20177;-69
2023/03/22 11:48:21;;;;;;;4.10;2.60;;;;;;;12.93;59.86;100359.75;5115794;28;20177;-69